sensor_id;sensor_type;location;lat;lon;timestamp;pressure;altitude;pressure_sealevel;temperature;humidity
44044;BME280;29709;52.396;16.796;2022-12-18T00:02:15;103372.59;;;-2.91;77.01
44044;BME280;29709;52.396;16.796;2022-12-18T00:05:18;103373.44;;;-2.88;77.10
44044;BME280;29709;52.396;16.796;2022-12-18T00:08:21;103377.06;;;-2.91;76.65
44044;BME280;29709;52.396;16.796;2022-12-18T00:11:52;103389.63;;;-2.93;76.91
44044;BME280;29709;52.396;16.796;2022-12-18T00:14:55;103377.97;;;-2.91;76.72
44044;BME280;29709;52.396;16.796;2022-12-18T00:17:57;103384.29;;;-2.96;76.79
44044;BME280;29709;52.396;16.796;2022-12-18T00:21:02;103397.75;;;-2.96;76.57
44044;BME280;29709;52.396;16.796;2022-12-18T00:24:06;103395.12;;;-3.02;76.59
44044;BME280;29709;52.396;16.796;2022-12-18T00:27:10;103393.30;;;-2.99;76.58
44044;BME280;29709;52.396;16.796;2022-12-18T00:30:13;103402.28;;;-3.00;76.14
44044;BME280;29709;52.396;16.796;2022-12-18T00:33:17;103399.56;;;-2.98;76.32
44044;BME280;29709;52.396;16.796;2022-12-18T00:36:23;103398.59;;;-2.89;76.36
44044;BME280;29709;52.396;16.796;2022-12-18T00:39:26;103403.06;;;-2.90;75.91
44044;BME280;29709;52.396;16.796;2022-12-18T00:42:54;103419.30;;;-2.98;75.91
44044;BME280;29709;52.396;16.796;2022-12-18T00:46:00;103421.19;;;-3.07;75.65
44044;BME280;29709;52.396;16.796;2022-12-18T00:49:03;103427.76;;;-3.33;75.67
44044;BME280;29709;52.396;16.796;2022-12-18T00:52:06;103421.59;;;-3.47;76.02
44044;BME280;29709;52.396;16.796;2022-12-18T00:55:10;103428.04;;;-3.63;76.50
44044;BME280;29709;52.396;16.796;2022-12-18T00:58:14;103434.31;;;-3.64;76.43
44044;BME280;29709;52.396;16.796;2022-12-18T01:01:18;103444.16;;;-3.66;76.88
44044;BME280;29709;52.396;16.796;2022-12-18T01:04:21;103444.25;;;-3.74;77.02
44044;BME280;29709;52.396;16.796;2022-12-18T01:07:24;103446.03;;;-3.76;77.03
44044;BME280;29709;52.396;16.796;2022-12-18T01:10:26;103447.87;;;-3.80;76.67
44044;BME280;29709;52.396;16.796;2022-12-18T01:13:55;103457.81;;;-3.92;77.03
44044;BME280;29709;52.396;16.796;2022-12-18T01:16:58;103460.57;;;-4.03;76.94
44044;BME280;29709;52.396;16.796;2022-12-18T01:20:01;103465.05;;;-4.07;77.86
44044;BME280;29709;52.396;16.796;2022-12-18T01:23:04;103457.88;;;-4.03;77.38
44044;BME280;29709;52.396;16.796;2022-12-18T01:26:09;103461.42;;;-3.98;77.39
44044;BME280;29709;52.396;16.796;2022-12-18T01:29:12;103463.26;;;-4.03;77.17
44044;BME280;29709;52.396;16.796;2022-12-18T01:32:15;103466.03;;;-4.15;77.31
44044;BME280;29709;52.396;16.796;2022-12-18T01:35:18;103467.84;;;-4.22;77.06
44044;BME280;29709;52.396;16.796;2022-12-18T01:38:21;103473.28;;;-4.34;77.35
44044;BME280;29709;52.396;16.796;2022-12-18T01:41:27;103480.48;;;-4.38;77.61
44044;BME280;29709;52.396;16.796;2022-12-18T01:48:25;103482.27;;;-4.37;77.88
44044;BME280;29709;52.396;16.796;2022-12-18T01:51:29;103487.66;;;-4.46;77.54
44044;BME280;29709;52.396;16.796;2022-12-18T01:54:33;103477.83;;;-4.51;77.83
44044;BME280;29709;52.396;16.796;2022-12-18T01:57:37;103474.23;;;-4.44;78.35
44044;BME280;29709;52.396;16.796;2022-12-18T02:00:40;103480.42;;;-4.31;78.50
44044;BME280;29709;52.396;16.796;2022-12-18T02:03:44;103482.12;;;-4.12;77.90
44044;BME280;29709;52.396;16.796;2022-12-18T02:06:53;103487.52;;;-4.21;77.07
44044;BME280;29709;52.396;16.796;2022-12-18T02:10:30;103501.10;;;-4.47;77.17
44044;BME280;29709;52.396;16.796;2022-12-18T02:13:44;103496.66;;;-4.62;77.95
44044;BME280;29709;52.396;16.796;2022-12-18T02:16:54;103499.37;;;-4.65;78.21
44044;BME280;29709;52.396;16.796;2022-12-18T02:20:12;103496.63;;;-4.59;77.99
44044;BME280;29709;52.396;16.796;2022-12-18T02:23:50;103503.82;;;-4.58;78.04
44044;BME280;29709;52.396;16.796;2022-12-18T02:27:00;103507.35;;;-4.50;78.28
44044;BME280;29709;52.396;16.796;2022-12-18T02:30:07;103507.30;;;-4.34;78.17
44044;BME280;29709;52.396;16.796;2022-12-18T02:33:12;103504.56;;;-4.28;77.44
44044;BME280;29709;52.396;16.796;2022-12-18T02:36:18;103512.61;;;-4.28;77.30
44044;BME280;29709;52.396;16.796;2022-12-18T02:39:25;103523.38;;;-4.25;77.28
44044;BME280;29709;52.396;16.796;2022-12-18T02:42:55;103526.08;;;-4.31;77.08
44044;BME280;29709;52.396;16.796;2022-12-18T02:45:59;103515.37;;;-4.38;77.25
44044;BME280;29709;52.396;16.796;2022-12-18T02:49:13;103510.89;;;-4.42;77.51
44044;BME280;29709;52.396;16.796;2022-12-18T02:52:31;103511.76;;;-4.33;77.58
44044;BME280;29709;52.396;16.796;2022-12-18T02:59:23;103510.91;;;-4.45;77.56
44044;BME280;29709;52.396;16.796;2022-12-18T03:05:52;103518.92;;;-4.32;77.48
44044;BME280;29709;52.396;16.796;2022-12-18T03:09:09;103531.43;;;-4.31;77.16
44044;BME280;29709;52.396;16.796;2022-12-18T03:12:18;103525.24;;;-4.46;77.29
44044;BME280;29709;52.396;16.796;2022-12-18T03:15:34;103522.55;;;-4.49;77.51
44044;BME280;29709;52.396;16.796;2022-12-18T03:21:57;103531.46;;;-4.39;77.55
44044;BME280;29709;52.396;16.796;2022-12-18T03:25:06;103531.47;;;-4.41;77.36
44044;BME280;29709;52.396;16.796;2022-12-18T03:28:14;103539.59;;;-4.54;77.49
44044;BME280;29709;52.396;16.796;2022-12-18T03:31:21;103535.13;;;-4.58;77.24
44044;BME280;29709;52.396;16.796;2022-12-18T03:34:31;103538.67;;;-4.52;77.36
44044;BME280;29709;52.396;16.796;2022-12-18T03:37:35;103535.09;;;-4.51;77.46
44044;BME280;29709;52.396;16.796;2022-12-18T03:44:26;103546.72;;;-4.50;77.62
44044;BME280;29709;52.396;16.796;2022-12-18T03:50:48;103546.70;;;-4.37;76.98
44044;BME280;29709;52.396;16.796;2022-12-18T03:53:56;103544.88;;;-4.39;77.24
44044;BME280;29709;52.396;16.796;2022-12-18T03:57:09;103540.37;;;-4.29;77.57
44044;BME280;29709;52.396;16.796;2022-12-18T04:00:16;103551.13;;;-4.34;76.96
44044;BME280;29709;52.396;16.796;2022-12-18T04:03:20;103555.66;;;-4.47;76.71
44044;BME280;29709;52.396;16.796;2022-12-18T04:06:50;103556.58;;;-4.60;77.94
44044;BME280;29709;52.396;16.796;2022-12-18T04:09:56;103561.02;;;-4.50;77.58
44044;BME280;29709;52.396;16.796;2022-12-18T04:13:01;103549.45;;;-4.58;77.04
44044;BME280;29709;52.396;16.796;2022-12-18T04:16:04;103558.38;;;-4.70;77.78
44044;BME280;29709;52.396;16.796;2022-12-18T04:19:07;103559.31;;;-4.68;78.30
44044;BME280;29709;52.396;16.796;2022-12-18T04:22:10;103564.63;;;-4.61;78.08
44044;BME280;29709;52.396;16.796;2022-12-18T04:25:13;103565.54;;;-4.56;77.91
44044;BME280;29709;52.396;16.796;2022-12-18T04:28:16;103574.45;;;-4.50;78.18
44044;BME280;29709;52.396;16.796;2022-12-18T04:31:19;103575.35;;;-4.52;78.10
44044;BME280;29709;52.396;16.796;2022-12-18T04:34:22;103580.71;;;-4.46;78.18
44044;BME280;29709;52.396;16.796;2022-12-18T04:37:51;103590.54;;;-4.38;78.15
44044;BME280;29709;52.396;16.796;2022-12-18T04:40:53;103591.41;;;-4.34;77.97
44044;BME280;29709;52.396;16.796;2022-12-18T04:43:56;103580.65;;;-4.31;78.17
44044;BME280;29709;52.396;16.796;2022-12-18T04:46:59;103582.44;;;-4.24;77.65
44044;BME280;29709;52.396;16.796;2022-12-18T04:50:03;103588.67;;;-4.20;78.09
44044;BME280;29709;52.396;16.796;2022-12-18T04:53:06;103580.59;;;-4.13;77.74
44044;BME280;29709;52.396;16.796;2022-12-18T04:56:11;103591.32;;;-4.05;77.80
44044;BME280;29709;52.396;16.796;2022-12-18T04:59:14;103598.48;;;-4.05;77.59
44044;BME280;29709;52.396;16.796;2022-12-18T05:02:17;103606.55;;;-4.10;77.53
44044;BME280;29709;52.396;16.796;2022-12-18T05:05:20;103617.32;;;-4.16;77.24
44044;BME280;29709;52.396;16.796;2022-12-18T05:08:50;103619.14;;;-4.26;77.89
44044;BME280;29709;52.396;16.796;2022-12-18T05:11:54;103614.67;;;-4.27;77.66
44044;BME280;29709;52.396;16.796;2022-12-18T05:15:00;103617.36;;;-4.31;78.84
44044;BME280;29709;52.396;16.796;2022-12-18T05:18:04;103617.32;;;-4.21;78.30
44044;BME280;29709;52.396;16.796;2022-12-18T05:21:07;103623.61;;;-4.23;78.29
44044;BME280;29709;52.396;16.796;2022-12-18T05:24:10;103619.13;;;-4.29;78.10
44044;BME280;29709;52.396;16.796;2022-12-18T05:27:14;103623.62;;;-4.26;78.50
44044;BME280;29709;52.396;16.796;2022-12-18T05:30:16;103628.10;;;-4.33;78.42
44044;BME280;29709;52.396;16.796;2022-12-18T05:33:21;103633.47;;;-4.33;78.49
44044;BME280;29709;52.396;16.796;2022-12-18T05:36:24;103640.60;;;-4.27;78.63
44044;BME280;29709;52.396;16.796;2022-12-18T05:39:28;103649.52;;;-4.19;78.74
44044;BME280;29709;52.396;16.796;2022-12-18T05:42:56;103644.16;;;-4.19;78.31
44044;BME280;29709;52.396;16.796;2022-12-18T05:46:07;103655.81;;;-4.22;78.20
44044;BME280;29709;52.396;16.796;2022-12-18T05:49:17;103659.40;;;-4.23;78.41
44044;BME280;29709;52.396;16.796;2022-12-18T05:52:22;103663.00;;;-4.33;78.60
44044;BME280;29709;52.396;16.796;2022-12-18T05:55:26;103668.38;;;-4.31;78.84
44044;BME280;29709;52.396;16.796;2022-12-18T05:58:33;103674.63;;;-4.25;79.17
44044;BME280;29709;52.396;16.796;2022-12-18T06:01:36;103676.39;;;-4.21;78.83
44044;BME280;29709;52.396;16.796;2022-12-18T06:04:39;103679.12;;;-4.27;78.72
44044;BME280;29709;52.396;16.796;2022-12-18T06:08:10;103689.83;;;-4.22;79.09
44044;BME280;29709;52.396;16.796;2022-12-18T06:11:17;103696.98;;;-4.20;78.71
44044;BME280;29709;52.396;16.796;2022-12-18T06:14:21;103689.84;;;-4.24;78.76
44044;BME280;29709;52.396;16.796;2022-12-18T06:17:27;103688.07;;;-4.49;78.63
44044;BME280;29709;52.396;16.796;2022-12-18T06:20:31;103704.21;;;-4.58;78.71
44044;BME280;29709;52.396;16.796;2022-12-18T06:23:36;103702.41;;;-4.67;79.02
44044;BME280;29709;52.396;16.796;2022-12-18T06:26:39;103696.14;;;-4.63;79.44
44044;BME280;29709;52.396;16.796;2022-12-18T06:29:42;103698.83;;;-4.54;79.93
44044;BME280;29709;52.396;16.796;2022-12-18T06:32:45;103703.30;;;-4.47;80.19
44044;BME280;29709;52.396;16.796;2022-12-18T06:36:15;103705.97;;;-4.44;79.44
44044;BME280;29709;52.396;16.796;2022-12-18T06:39:19;103706.86;;;-4.42;79.45
44044;BME280;29709;52.396;16.796;2022-12-18T06:42:22;103700.61;;;-4.53;79.52
44044;BME280;29709;52.396;16.796;2022-12-18T06:45:25;103708.66;;;-4.65;78.88
44044;BME280;29709;52.396;16.796;2022-12-18T06:48:28;103704.16;;;-4.90;79.27
44044;BME280;29709;52.396;16.796;2022-12-18T06:51:31;103710.45;;;-4.87;80.19
44044;BME280;29709;52.396;16.796;2022-12-18T06:54:35;103719.38;;;-4.83;80.44
44044;BME280;29709;52.396;16.796;2022-12-18T06:57:40;103721.18;;;-4.75;80.15
44044;BME280;29709;52.396;16.796;2022-12-18T07:00:43;103729.26;;;-4.69;79.86
44044;BME280;29709;52.396;16.796;2022-12-18T07:03:52;103735.51;;;-4.68;80.04
44044;BME280;29709;52.396;16.796;2022-12-18T07:07:24;103751.59;;;-4.73;79.91
44044;BME280;29709;52.396;16.796;2022-12-18T07:10:27;103743.54;;;-4.71;80.31
44044;BME280;29709;52.396;16.796;2022-12-18T07:13:30;103739.08;;;-4.72;79.86
44044;BME280;29709;52.396;16.796;2022-12-18T07:16:33;103747.12;;;-4.71;80.26
44044;BME280;29709;52.396;16.796;2022-12-18T07:19:36;103742.65;;;-4.61;80.56
44044;BME280;29709;52.396;16.796;2022-12-18T07:22:39;103748.02;;;-4.50;80.13
44044;BME280;29709;52.396;16.796;2022-12-18T07:25:42;103743.57;;;-4.45;80.14
44044;BME280;29709;52.396;16.796;2022-12-18T07:28:46;103750.70;;;-4.38;79.93
44044;BME280;29709;52.396;16.796;2022-12-18T07:31:49;103753.41;;;-4.44;79.44
44044;BME280;29709;52.396;16.796;2022-12-18T07:34:53;103767.71;;;-4.53;79.91
44044;BME280;29709;52.396;16.796;2022-12-18T07:38:24;103774.87;;;-4.52;80.16
44044;BME280;29709;52.396;16.796;2022-12-18T07:41:27;103770.38;;;-4.51;80.21
44044;BME280;29709;52.396;16.796;2022-12-18T07:44:30;103783.81;;;-4.50;80.14
44044;BME280;29709;52.396;16.796;2022-12-18T07:47:36;103798.16;;;-4.45;80.36
44044;BME280;29709;52.396;16.796;2022-12-18T07:50:41;103807.98;;;-4.41;80.74
44044;BME280;29709;52.396;16.796;2022-12-18T07:53:46;103807.98;;;-4.21;80.78
44044;BME280;29709;52.396;16.796;2022-12-18T07:56:51;103803.52;;;-4.13;80.24
44044;BME280;29709;52.396;16.796;2022-12-18T07:59:55;103816.04;;;-4.12;80.11
44044;BME280;29709;52.396;16.796;2022-12-18T08:03:01;103825.00;;;-4.02;80.13
44044;BME280;29709;52.396;16.796;2022-12-18T08:06:34;103821.41;;;-4.10;79.74
44044;BME280;29709;52.396;16.796;2022-12-18T08:09:37;103814.24;;;-4.10;80.18
44044;BME280;29709;52.396;16.796;2022-12-18T08:12:44;103817.82;;;-4.08;79.99
44044;BME280;29709;52.396;16.796;2022-12-18T08:16:04;103826.78;;;-3.99;80.07
44044;BME280;29709;52.396;16.796;2022-12-18T08:19:04;103824.98;;;-3.97;80.34
44044;BME280;29709;52.396;16.796;2022-12-18T08:22:07;103822.30;;;-3.85;80.21
44044;BME280;29709;52.396;16.796;2022-12-18T08:25:14;103810.62;;;-3.77;79.90
44044;BME280;29709;52.396;16.796;2022-12-18T08:28:43;103820.49;;;-3.74;79.63
44044;BME280;29709;52.396;16.796;2022-12-18T08:31:46;103815.12;;;-3.82;79.66
44044;BME280;29709;52.396;16.796;2022-12-18T08:34:49;103820.48;;;-3.79;79.81
44044;BME280;29709;52.396;16.796;2022-12-18T08:37:52;103824.06;;;-3.77;79.86
44044;BME280;29709;52.396;16.796;2022-12-18T08:41:05;103825.87;;;-3.74;80.17
44044;BME280;29709;52.396;16.796;2022-12-18T08:44:08;103810.59;;;-3.61;80.17
44044;BME280;29709;52.396;16.796;2022-12-18T08:47:23;103803.42;;;-3.59;79.95
44044;BME280;29709;52.396;16.796;2022-12-18T08:50:26;103807.94;;;-3.64;79.53
44044;BME280;29709;52.396;16.796;2022-12-18T08:53:54;103805.23;;;-3.66;79.69
44044;BME280;29709;52.396;16.796;2022-12-18T08:56:57;103793.58;;;-3.66;79.92
44044;BME280;29709;52.396;16.796;2022-12-18T09:00:00;103781.92;;;-3.61;80.27
44044;BME280;29709;52.396;16.796;2022-12-18T09:03:03;103784.59;;;-3.52;79.74
44044;BME280;29709;52.396;16.796;2022-12-18T09:06:06;103769.37;;;-3.60;80.14
44044;BME280;29709;52.396;16.796;2022-12-18T09:09:13;103788.17;;;-3.50;80.37
44044;BME280;29709;52.396;16.796;2022-12-18T09:12:19;103790.77;;;-3.30;79.80
44044;BME280;29709;52.396;16.796;2022-12-18T09:15:25;103783.61;;;-3.31;79.62
44044;BME280;29709;52.396;16.796;2022-12-18T09:18:31;103795.27;;;-3.35;79.46
44044;BME280;29709;52.396;16.796;2022-12-18T09:22:00;103785.45;;;-3.42;79.77
44044;BME280;29709;52.396;16.796;2022-12-18T09:25:04;103789.91;;;-3.36;79.99
44044;BME280;29709;52.396;16.796;2022-12-18T09:28:15;103791.69;;;-3.35;79.76
44044;BME280;29709;52.396;16.796;2022-12-18T09:31:20;103798.84;;;-3.30;79.99
44044;BME280;29709;52.396;16.796;2022-12-18T09:34:23;103807.79;;;-3.28;79.73
44044;BME280;29709;52.396;16.796;2022-12-18T09:37:26;103811.35;;;-3.24;79.79
44044;BME280;29709;52.396;16.796;2022-12-18T09:40:36;103807.74;;;-3.15;79.68
44044;BME280;29709;52.396;16.796;2022-12-18T09:43:48;103806.85;;;-3.11;79.24
44044;BME280;29709;52.396;16.796;2022-12-18T09:47:03;103798.73;;;-3.07;79.55
44044;BME280;29709;52.396;16.796;2022-12-18T09:50:30;103804.93;;;-2.94;79.61
44044;BME280;29709;52.396;16.796;2022-12-18T09:53:29;103801.27;;;-2.78;79.84
44044;BME280;29709;52.396;16.796;2022-12-18T09:56:36;103794.01;;;-2.65;79.51
44044;BME280;29709;52.396;16.796;2022-12-18T09:59:45;103797.55;;;-2.62;79.08
44044;BME280;29709;52.396;16.796;2022-12-18T10:02:59;103794.91;;;-2.66;78.85
44044;BME280;29709;52.396;16.796;2022-12-18T10:09:27;103786.77;;;-2.55;79.05
44044;BME280;29709;52.396;16.796;2022-12-18T10:12:42;103789.44;;;-2.54;79.07
44044;BME280;29709;52.396;16.796;2022-12-18T10:22:26;103807.51;;;-2.73;79.56
44044;BME280;29709;52.396;16.796;2022-12-18T10:25:41;103802.08;;;-2.65;78.94
44044;BME280;29709;52.396;16.796;2022-12-18T10:28:46;103800.28;;;-2.65;78.68
44044;BME280;29709;52.396;16.796;2022-12-18T10:32:21;103816.41;;;-2.62;79.34
44044;BME280;29709;52.396;16.796;2022-12-18T10:35:26;103812.80;;;-2.56;79.15
44044;BME280;29709;52.396;16.796;2022-12-18T10:38:31;103812.82;;;-2.59;79.01
44044;BME280;29709;52.396;16.796;2022-12-18T10:41:34;103814.58;;;-2.55;79.20
44044;BME280;29709;52.396;16.796;2022-12-18T10:44:38;103813.66;;;-2.52;78.92
44044;BME280;29709;52.396;16.796;2022-12-18T10:47:46;103805.59;;;-2.54;78.74
44044;BME280;29709;52.396;16.796;2022-12-18T10:50:51;103801.10;;;-2.53;78.83
44044;BME280;29709;52.396;16.796;2022-12-18T10:54:00;103805.56;;;-2.48;79.20
44044;BME280;29709;52.396;16.796;2022-12-18T10:57:14;103801.04;;;-2.44;78.79
44044;BME280;29709;52.396;16.796;2022-12-18T11:00:24;103796.46;;;-2.33;79.12
44044;BME280;29709;52.396;16.796;2022-12-18T11:03:31;103792.84;;;-2.32;78.44
44044;BME280;29709;52.396;16.796;2022-12-18T11:06:52;103788.35;;;-2.28;79.01
44044;BME280;29709;52.396;16.796;2022-12-18T11:13:16;103786.44;;;-2.16;78.81
44044;BME280;29709;52.396;16.796;2022-12-18T11:16:20;103794.49;;;-2.13;78.42
44044;BME280;29709;52.396;16.796;2022-12-18T11:19:31;103796.23;;;-2.06;78.85
44044;BME280;29709;52.396;16.796;2022-12-18T11:22:36;103783.64;;;-2.05;78.08
44044;BME280;29709;52.396;16.796;2022-12-18T11:38:40;103781.81;;;-2.01;78.23
44044;BME280;29709;52.396;16.796;2022-12-18T11:45:23;103784.57;;;-2.09;78.20
44044;BME280;29709;52.396;16.796;2022-12-18T11:48:33;103780.06;;;-2.09;78.01
44044;BME280;29709;52.396;16.796;2022-12-18T11:51:53;103784.59;;;-2.11;78.19
44044;BME280;29709;52.396;16.796;2022-12-18T11:54:52;103798.92;;;-2.09;78.08
44044;BME280;29709;52.396;16.796;2022-12-18T12:11:35;103804.05;;;-1.80;77.70
44044;BME280;29709;52.396;16.796;2022-12-18T12:31:09;103808.66;;;-1.91;77.22
44044;BME280;29709;52.396;16.796;2022-12-18T12:34:20;103815.87;;;-1.93;77.66
44044;BME280;29709;52.396;16.796;2022-12-18T12:43:52;103808.66;;;-1.91;77.04
44044;BME280;29709;52.396;16.796;2022-12-18T12:47:11;103804.23;;;-1.96;76.96
44044;BME280;29709;52.396;16.796;2022-12-18T12:50:17;103808.69;;;-1.94;77.20
44044;BME280;29709;52.396;16.796;2022-12-18T12:53:26;103802.44;;;-1.97;77.24
44044;BME280;29709;52.396;16.796;2022-12-18T12:56:38;103797.05;;;-1.97;77.33
44044;BME280;29709;52.396;16.796;2022-12-18T13:06:24;103791.65;;;-1.99;77.13
44044;BME280;29709;52.396;16.796;2022-12-18T13:09:24;103790.75;;;-1.96;77.47
44044;BME280;29709;52.396;16.796;2022-12-18T13:12:57;103792.65;;;-2.09;76.87
44044;BME280;29709;52.396;16.796;2022-12-18T13:16:07;103798.06;;;-2.11;77.36
44044;BME280;29709;52.396;16.796;2022-12-18T13:25:38;103804.15;;;-1.90;77.49
44044;BME280;29709;52.396;16.796;2022-12-18T13:29:07;103799.78;;;-2.02;77.02
44044;BME280;29709;52.396;16.796;2022-12-18T13:32:20;103796.23;;;-2.09;76.83
44044;BME280;29709;52.396;16.796;2022-12-18T13:38:40;103801.63;;;-2.06;77.01
44044;BME280;29709;52.396;16.796;2022-12-18T13:41:46;103796.33;;;-2.16;76.99
44044;BME280;29709;52.396;16.796;2022-12-18T13:44:50;103804.32;;;-2.09;77.35
44044;BME280;29709;52.396;16.796;2022-12-18T13:48:22;103802.65;;;-2.19;77.01
44044;BME280;29709;52.396;16.796;2022-12-18T13:51:26;103804.45;;;-2.22;77.34
44044;BME280;29709;52.396;16.796;2022-12-18T13:54:36;103808.07;;;-2.25;77.05
44044;BME280;29709;52.396;16.796;2022-12-18T13:57:40;103803.64;;;-2.34;77.12
44044;BME280;29709;52.396;16.796;2022-12-18T14:00:46;103807.27;;;-2.36;77.38
44044;BME280;29709;52.396;16.796;2022-12-18T14:04:08;103811.78;;;-2.41;77.16
44044;BME280;29709;52.396;16.796;2022-12-18T14:07:07;103815.41;;;-2.45;76.99
44044;BME280;29709;52.396;16.796;2022-12-18T14:10:15;103813.69;;;-2.55;77.09
44044;BME280;29709;52.396;16.796;2022-12-18T14:13:24;103824.50;;;-2.60;77.07
44044;BME280;29709;52.396;16.796;2022-12-18T14:16:31;103828.11;;;-2.66;76.98
44044;BME280;29709;52.396;16.796;2022-12-18T14:20:00;103836.18;;;-2.66;77.43
44044;BME280;29709;52.396;16.796;2022-12-18T14:23:03;103833.48;;;-2.64;77.06
44044;BME280;29709;52.396;16.796;2022-12-18T14:29:27;103841.60;;;-2.72;77.17
44044;BME280;29709;52.396;16.796;2022-12-18T14:32:31;103839.80;;;-2.68;77.33
44044;BME280;29709;52.396;16.796;2022-12-18T14:35:36;103847.88;;;-2.68;77.29
44044;BME280;29709;52.396;16.796;2022-12-18T14:38:40;103854.15;;;-2.68;77.48
44044;BME280;29709;52.396;16.796;2022-12-18T14:42:10;103855.04;;;-2.67;77.65
44044;BME280;29709;52.396;16.796;2022-12-18T14:48:38;103877.41;;;-2.56;77.17
44044;BME280;29709;52.396;16.796;2022-12-18T14:51:53;103869.44;;;-2.74;77.06
44044;BME280;29709;52.396;16.796;2022-12-18T14:54:57;103863.22;;;-2.87;76.93
44044;BME280;29709;52.396;16.796;2022-12-18T15:00:47;103848.03;;;-3.03;77.23
44044;BME280;29709;52.396;16.796;2022-12-18T15:03:51;103843.58;;;-3.07;77.02
44044;BME280;29709;52.396;16.796;2022-12-18T15:10:15;103836.48;;;-3.21;77.29
44044;BME280;29709;52.396;16.796;2022-12-18T15:13:23;103831.08;;;-3.24;77.46
44044;BME280;29709;52.396;16.796;2022-12-18T15:16:27;103832.87;;;-3.24;77.35
44044;BME280;29709;52.396;16.796;2022-12-18T15:20:01;103818.57;;;-3.29;77.83
44044;BME280;29709;52.396;16.796;2022-12-18T15:23:05;103817.69;;;-3.31;77.83
44044;BME280;29709;52.396;16.796;2022-12-18T15:26:15;103827.52;;;-3.26;77.84
44044;BME280;29709;52.396;16.796;2022-12-18T15:29:20;103821.25;;;-3.34;77.86
44044;BME280;29709;52.396;16.796;2022-12-18T15:32:25;103823.06;;;-3.31;77.94
44044;BME280;29709;52.396;16.796;2022-12-18T15:35:28;103816.75;;;-3.27;78.06
44044;BME280;29709;52.396;16.796;2022-12-18T15:38:31;103806.03;;;-3.32;77.88
44044;BME280;29709;52.396;16.796;2022-12-18T15:41:38;103800.66;;;-3.33;77.79
44044;BME280;29709;52.396;16.796;2022-12-18T15:45:11;103796.19;;;-3.45;77.74
44044;BME280;29709;52.396;16.796;2022-12-18T15:48:20;103790.84;;;-3.48;77.97
44044;BME280;29709;52.396;16.796;2022-12-18T15:51:28;103791.71;;;-3.46;78.06
44044;BME280;29709;52.396;16.796;2022-12-18T15:54:32;103790.84;;;-3.48;78.06
44044;BME280;29709;52.396;16.796;2022-12-18T15:57:47;103785.48;;;-3.56;77.86
44044;BME280;29709;52.396;16.796;2022-12-18T16:00:50;103778.34;;;-3.61;78.03
44044;BME280;29709;52.396;16.796;2022-12-18T16:04:22;103781.95;;;-3.70;78.53
44044;BME280;29709;52.396;16.796;2022-12-18T16:07:27;103774.77;;;-3.62;78.64
44044;BME280;29709;52.396;16.796;2022-12-18T16:10:30;103782.80;;;-3.51;78.76
44044;BME280;29709;52.396;16.796;2022-12-18T16:13:33;103772.92;;;-3.49;78.29
44044;BME280;29709;52.396;16.796;2022-12-18T16:16:39;103771.16;;;-3.53;78.42
44044;BME280;29709;52.396;16.796;2022-12-18T16:19:42;103778.30;;;-3.57;78.16
44044;BME280;29709;52.396;16.796;2022-12-18T16:22:46;103788.21;;;-3.63;78.33
44044;BME280;29709;52.396;16.796;2022-12-18T16:25:50;103790.87;;;-3.59;78.26
44044;BME280;29709;52.396;16.796;2022-12-18T16:28:54;103801.63;;;-3.59;78.62
44044;BME280;29709;52.396;16.796;2022-12-18T16:32:24;103818.64;;;-3.58;78.50
44044;BME280;29709;52.396;16.796;2022-12-18T16:35:27;103812.35;;;-3.56;78.50
44044;BME280;29709;52.396;16.796;2022-12-18T16:38:30;103810.57;;;-3.57;78.32
44044;BME280;29709;52.396;16.796;2022-12-18T16:41:33;103807.90;;;-3.66;78.48
44044;BME280;29709;52.396;16.796;2022-12-18T16:44:38;103816.89;;;-3.71;78.77
44044;BME280;29709;52.396;16.796;2022-12-18T16:47:41;103807.94;;;-3.72;78.77
44044;BME280;29709;52.396;16.796;2022-12-18T16:50:44;103801.67;;;-3.74;79.06
44044;BME280;29709;52.396;16.796;2022-12-18T16:53:47;103811.50;;;-3.61;78.94
44044;BME280;29709;52.396;16.796;2022-12-18T16:56:50;103813.32;;;-3.64;78.65
44044;BME280;29709;52.396;16.796;2022-12-18T16:59:53;103814.21;;;-3.71;78.53
44044;BME280;29709;52.396;16.796;2022-12-18T17:03:24;103825.83;;;-3.66;78.86
44044;BME280;29709;52.396;16.796;2022-12-18T17:06:30;103815.97;;;-3.54;78.67
44044;BME280;29709;52.396;16.796;2022-12-18T17:09:35;103820.42;;;-3.51;78.27
44044;BME280;29709;52.396;16.796;2022-12-18T17:12:38;103809.68;;;-3.57;78.16
44044;BME280;29709;52.396;16.796;2022-12-18T17:15:41;103811.51;;;-3.64;77.79
44044;BME280;29709;52.396;16.796;2022-12-18T17:18:44;103816.89;;;-3.70;78.20
44044;BME280;29709;52.396;16.796;2022-12-18T17:21:49;103816.89;;;-3.71;78.32
44044;BME280;29709;52.396;16.796;2022-12-18T17:24:52;103819.58;;;-3.76;78.13
44044;BME280;29709;52.396;16.796;2022-12-18T17:27:55;103816.88;;;-3.76;78.18
44044;BME280;29709;52.396;16.796;2022-12-18T17:30:59;103815.11;;;-3.72;78.45
44044;BME280;29709;52.396;16.796;2022-12-18T17:34:28;103810.62;;;-3.69;78.33
44044;BME280;29709;52.396;16.796;2022-12-18T17:37:31;103810.62;;;-3.69;78.50
44044;BME280;29709;52.396;16.796;2022-12-18T17:40:34;103813.30;;;-3.69;78.20
44044;BME280;29709;52.396;16.796;2022-12-18T17:43:37;103808.85;;;-3.74;78.01
44044;BME280;29709;52.396;16.796;2022-12-18T17:46:49;103803.47;;;-3.81;77.76
44044;BME280;29709;52.396;16.796;2022-12-18T17:49:52;103814.24;;;-3.99;77.78
44044;BME280;29709;52.396;16.796;2022-12-18T17:52:56;103808.88;;;-4.10;78.03
44044;BME280;29709;52.396;16.796;2022-12-18T17:56:01;103802.63;;;-4.13;77.93
44044;BME280;29709;52.396;16.796;2022-12-18T17:59:33;103808.88;;;-4.32;78.16
44044;BME280;29709;52.396;16.796;2022-12-18T18:02:36;103807.98;;;-4.39;78.44
44044;BME280;29709;52.396;16.796;2022-12-18T18:05:40;103804.39;;;-4.38;78.97
44044;BME280;29709;52.396;16.796;2022-12-18T18:08:43;103803.52;;;-4.45;78.66